createdAt,value
2024-03-01T00:10:43.390Z,33.90
2024-03-01T00:25:43.745Z,36.20
2024-03-01T00:40:44.166Z,40.10
2024-03-01T00:55:44.565Z,41.20
2024-03-01T01:10:45.101Z,40.70
2024-03-01T01:25:45.577Z,43.20
2024-03-01T01:40:46.077Z,50.90
2024-03-01T01:55:46.358Z,48.30
2024-03-01T02:10:46.907Z,46.30
2024-03-01T02:25:47.486Z,46.70
2024-03-01T02:40:47.840Z,43.80
2024-03-01T02:55:48.201Z,45.20
2024-03-01T03:10:48.682Z,45.80
2024-03-01T03:25:49.060Z,49.00
2024-03-01T03:40:49.539Z,51.50
2024-03-01T03:55:49.854Z,49.00
2024-03-01T04:10:50.229Z,53.90
2024-03-01T04:25:50.486Z,54.10
2024-03-01T04:40:50.921Z,56.70
2024-03-01T04:55:51.645Z,54.50
2024-03-01T05:10:52.699Z,55.10
2024-03-01T05:25:53.051Z,56.20
2024-03-01T05:40:55.779Z,52.90
2024-03-01T05:55:54.834Z,51.30
2024-03-01T06:10:55.599Z,48.30
2024-03-01T06:25:56.280Z,44.60
2024-03-01T06:40:57.020Z,38.80
2024-03-01T06:55:57.625Z,35.90
2024-03-01T07:10:58.281Z,32.60
2024-03-01T07:25:58.962Z,33.80
2024-03-01T07:40:59.616Z,33.20
2024-03-01T07:56:00.312Z,31.40
2024-03-01T08:11:00.972Z,29.80
2024-03-01T08:26:01.622Z,29.30
2024-03-01T08:41:02.262Z,29.90
2024-03-01T08:56:03.031Z,29.70
2024-03-01T09:11:04.169Z,29.10
2024-03-01T09:26:04.272Z,28.80
2024-03-01T09:41:04.960Z,29.00
2024-03-01T09:56:05.470Z,29.10
2024-03-01T10:11:06.229Z,29.90
2024-03-01T10:26:06.874Z,29.30
2024-03-01T10:41:11.895Z,29.50
2024-03-01T10:56:09.110Z,31.00
2024-03-01T11:11:08.500Z,29.40
2024-03-01T11:26:09.074Z,28.90
2024-03-01T11:41:09.735Z,25.40
2024-03-01T11:56:10.181Z,22.90
2024-03-01T12:11:10.623Z,22.30
2024-03-01T12:26:10.957Z,19.80
2024-03-01T12:41:11.939Z,20.30
2024-03-01T12:56:12.275Z,18.40
2024-03-01T13:11:12.827Z,18.60
2024-03-01T13:26:13.252Z,19.60
2024-03-01T13:41:13.806Z,18.40
2024-03-01T13:56:14.158Z,18.10
2024-03-01T14:11:14.691Z,14.70
2024-03-01T14:26:15.057Z,13.40
2024-03-01T14:41:16.214Z,13.40
2024-03-01T14:56:16.650Z,12.10
2024-03-01T15:11:17.202Z,11.40
2024-03-01T15:26:17.662Z,10.70
2024-03-01T15:41:18.067Z,9.80
2024-03-01T15:56:18.495Z,9.50
2024-03-01T16:11:18.993Z,9.70
2024-03-01T16:26:19.562Z,8.90
2024-03-01T16:41:19.992Z,9.20
2024-03-01T16:56:20.485Z,9.20
2024-03-01T17:11:20.897Z,8.90
2024-03-01T17:26:23.337Z,8.60
2024-03-01T17:41:22.436Z,10.10
2024-03-01T17:56:23.207Z,11.10
2024-03-01T18:11:23.859Z,12.00
2024-03-01T18:26:24.546Z,12.00
2024-03-01T18:41:25.245Z,13.70
2024-03-01T18:56:25.986Z,14.60
2024-03-01T19:11:26.822Z,16.90
2024-03-01T19:26:27.021Z,17.50
2024-03-01T19:41:27.710Z,18.30
2024-03-01T19:56:28.382Z,19.20
2024-03-01T20:11:29.156Z,19.70
2024-03-01T20:26:29.943Z,20.90
2024-03-01T20:41:30.859Z,22.10
2024-03-01T20:56:31.178Z,22.20
2024-03-01T21:11:31.496Z,24.00
2024-03-01T21:26:32.211Z,25.00
2024-03-01T21:41:33.002Z,24.60
2024-03-01T21:56:33.824Z,25.20
2024-03-01T22:11:34.748Z,24.90
2024-03-01T22:26:35.035Z,26.10
2024-03-01T22:41:35.897Z,24.40
2024-03-01T22:56:36.185Z,26.70
2024-03-01T23:11:37.131Z,28.30
2024-03-01T23:26:37.554Z,29.10
2024-03-01T23:41:37.995Z,27.70
2024-03-01T23:56:38.307Z,28.10
